.
WxDataArchive / Data Records for 2006-04-22
2006-04-21 April 2006 2006-04-23

Data Records for Saturday, 22 April 2006

Time	Temp	Chill	HIndex	Humid	Dewpt	 Wind 	HiWind	WindDir	Rain 	Barom 
-----	----	-----	------	-----	-----	------	------	-------	-----	----- 
00:00	56.6	56.6	56.6	52	39.2	0	0	---	0.00	29.851 
00:05	56.6	56.6	56.6	51	38.7	0	1	292	0.00	29.851 
00:10	56.5	56.5	56.5	51	38.6	0	0	---	0.00	29.851 
00:15	56.3	56.3	56.3	52	38.9	0	0	---	0.00	29.848 
00:20	55.9	55.9	55.9	52	38.5	0	0	---	0.00	29.848 
00:25	55.6	55.6	55.6	53	38.7	0	0	---	0.00	29.848 
00:30	55.3	55.3	55.3	53	38.5	0	0	---	0.00	29.848 
00:35	55.0	55.0	55.0	54	38.7	0	0	---	0.00	29.848 
00:40	54.7	54.7	54.7	54	38.4	0	0	---	0.00	29.848 
00:45	54.2	54.2	54.2	56	38.8	0	0	---	0.00	29.852 
00:50	53.6	53.6	53.6	57	38.7	0	0	---	0.00	29.852 
00:55	53.2	53.2	53.2	59	39.2	0	0	---	0.00	29.852 
01:00	52.8	52.8	52.8	60	39.3	0	0	---	0.00	29.856 
01:05	52.3	52.3	52.3	62	39.7	0	0	---	0.00	29.856 
01:10	51.9	51.9	51.9	62	39.3	0	0	---	0.00	29.856 
01:15	51.6	51.6	51.6	63	39.4	0	0	---	0.00	29.852 
01:20	51.3	51.3	51.3	63	39.1	0	0	---	0.00	29.852 
01:25	50.8	50.8	50.8	64	39.1	0	0	---	0.00	29.852 
01:30	50.4	50.4	50.4	64	38.7	0	0	---	0.00	29.850 
01:35	50.1	50.1	50.1	65	38.8	0	0	---	0.00	29.850 
01:40	49.6	49.6	49.6	66	38.7	0	0	---	0.00	29.850 
01:45	49.2	49.2	49.2	66	38.3	0	0	---	0.00	29.851 
01:50	48.8	48.8	48.8	67	38.3	0	0	---	0.00	29.851 
01:55	48.5	48.5	48.5	69	38.8	0	0	---	0.00	29.851 
02:00	48.2	48.2	48.2	69	38.5	0	0	---	0.00	29.852 
02:05	48.0	48.0	48.0	70	38.7	0	0	---	0.00	29.852 
02:10	47.9	47.9	47.9	71	39.0	0	0	---	0.00	29.852 
02:15	47.7	47.7	47.7	71	38.8	0	0	---	0.00	29.849 
02:20	47.6	47.6	47.6	72	39.0	0	0	---	0.00	29.849 
02:25	47.3	47.3	47.3	73	39.1	0	0	---	0.00	29.849 
02:30	47.0	47.0	47.0	74	39.1	0	0	---	0.00	29.846 
02:35	46.7	46.7	46.7	75	39.2	0	0	---	0.00	29.846 
02:40	46.4	46.4	46.4	75	38.9	0	0	---	0.00	29.846 
02:45	46.4	46.4	46.4	75	38.9	0	0	---	0.00	29.846 
02:50	46.2	46.2	46.2	76	39.1	0	0	---	0.00	29.846 
02:55	46.2	46.2	46.2	76	39.1	0	0	---	0.00	29.846 
03:00	46.1	46.1	46.1	76	39.0	0	0	---	0.00	29.844 
03:05	46.0	46.0	46.0	76	38.9	0	0	---	0.00	29.844 
03:10	45.7	45.7	45.7	78	39.2	0	0	---	0.00	29.844 
03:15	45.5	45.5	45.5	78	39.0	0	0	---	0.00	29.841 
03:20	45.4	45.4	45.4	78	38.9	0	0	---	0.00	29.841 
03:25	45.2	45.2	45.2	79	39.1	0	0	---	0.00	29.841 
03:30	45.1	45.1	45.1	79	39.0	0	0	---	0.00	29.840 
03:35	44.9	44.9	44.9	79	38.8	0	0	---	0.00	29.840 
03:40	44.8	44.8	44.8	79	38.7	0	0	---	0.00	29.840 
03:45	44.5	44.5	44.5	80	38.7	0	0	---	0.00	29.840 
03:50	44.3	44.3	44.3	80	38.5	0	0	---	0.00	29.840 
03:55	44.2	44.2	44.2	82	39.1	0	0	---	0.00	29.840 
04:00	44.1	44.1	44.1	82	39.0	0	0	---	0.00	29.842 
04:05	44.1	44.1	44.1	82	39.0	0	0	---	0.00	29.842 
04:10	44.2	44.2	44.2	82	39.1	0	0	---	0.00	29.842 
04:15	44.2	44.2	44.2	82	39.1	0	0	---	0.00	29.844 
04:20	44.2	44.2	44.2	82	39.1	0	0	---	0.00	29.844 
04:25	44.1	44.1	44.1	82	39.0	0	0	---	0.00	29.844 
04:30	44.1	44.1	44.1	82	39.0	0	0	---	0.00	29.846 
04:35	43.9	43.9	43.9	82	38.8	0	0	---	0.00	29.846 
04:40	43.8	43.8	43.8	82	38.7	0	0	---	0.00	29.846 
04:45	43.8	43.8	43.8	82	38.7	0	0	---	0.00	29.846 
04:50	43.6	43.6	43.6	82	38.5	0	0	---	0.00	29.846 
04:55	43.6	43.6	43.6	82	38.5	0	0	---	0.00	29.846 
05:00	43.6	43.6	43.6	82	38.5	0	0	---	0.00	29.846 
05:05	43.5	43.5	43.5	82	38.4	0	0	---	0.00	29.846 
05:10	43.3	43.3	43.3	82	38.2	0	0	---	0.00	29.846 
05:15	43.2	43.2	43.2	83	38.4	0	0	---	0.00	29.846 
05:20	43.2	43.2	43.2	83	38.4	0	0	---	0.00	29.846 
05:25	43.1	43.1	43.1	83	38.3	0	0	---	0.00	29.846 
05:30	43.1	43.1	43.1	83	38.3	0	0	---	0.00	29.848 
05:35	43.1	43.1	43.1	84	38.6	0	0	---	0.00	29.848 
05:40	42.9	42.9	42.9	83	38.1	0	0	---	0.00	29.848 
05:45	42.6	42.6	42.6	83	37.8	0	0	---	0.00	29.848 
05:50	42.3	42.3	42.3	84	37.8	0	0	---	0.00	29.848 
05:55	42.2	42.2	42.2	84	37.7	0	0	---	0.00	29.848 
06:00	41.9	41.9	41.9	84	37.4	0	0	---	0.00	29.852 
06:05	41.6	41.6	41.6	84	37.1	0	0	---	0.00	29.852 
06:10	41.5	41.5	41.5	85	37.3	0	0	---	0.00	29.852 
06:15	41.3	41.3	41.3	86	37.4	0	0	---	0.00	29.856 
06:20	41.3	41.3	41.3	87	37.7	0	0	---	0.00	29.856 
06:25	41.5	41.5	41.5	87	37.9	0	0	---	0.00	29.856 
06:30	41.6	41.6	41.6	87	38.0	0	0	---	0.00	29.860 
06:35	41.6	41.6	41.6	87	38.0	0	0	---	0.00	29.860 
06:40	41.6	41.6	41.6	87	38.0	0	0	---	0.00	29.860 
06:45	41.5	41.5	41.5	87	37.9	0	0	---	0.00	29.860 
06:50	41.5	41.5	41.5	87	37.9	0	0	---	0.00	29.860 
06:55	41.5	41.5	41.5	87	37.9	0	0	---	0.00	29.860 
07:00	41.6	41.6	41.6	87	38.0	0	0	---	0.00	29.862 
07:05	41.6	41.6	41.6	87	38.0	0	0	---	0.00	29.862 
07:10	41.5	41.5	41.5	87	37.9	0	0	---	0.00	29.862 
07:15	41.5	41.5	41.5	87	37.9	0	0	---	0.00	29.864 
07:20	41.3	41.3	41.3	87	37.7	0	0	---	0.00	29.864 
07:25	41.5	41.5	41.5	88	38.2	0	0	---	0.00	29.864 
07:30	41.6	41.6	41.6	88	38.3	0	0	---	0.00	29.866 
07:35	41.8	41.8	41.8	88	38.5	0	0	---	0.00	29.866 
07:40	42.2	42.2	42.2	88	38.9	0	0	---	0.00	29.866 
07:45	43.1	43.1	43.1	88	39.8	0	0	---	0.00	29.864 
07:50	44.2	44.2	44.2	83	39.4	0	0	---	0.00	29.864 
07:55	45.2	45.2	45.2	84	40.7	0	0	---	0.00	29.864 
08:00	46.0	46.0	46.0	84	41.4	0	0	---	0.00	29.862 
08:05	47.1	47.1	47.1	83	42.2	0	0	---	0.00	29.862 
08:10	48.5	48.5	48.5	77	41.6	0	1	292	0.00	29.862 
08:15	49.8	49.8	49.8	75	42.2	0	1	292	0.00	29.871 
08:20	51.3	51.3	51.3	71	42.2	0	1	292	0.00	29.871 
08:25	52.8	52.8	52.8	67	42.1	0	2	292	0.00	29.871 
08:30	54.1	54.1	54.1	63	41.8	1	2	292	0.00	29.870 
08:35	55.3	55.3	55.3	62	42.5	1	4	248	0.00	29.870 
08:40	56.3	56.3	56.3	59	42.2	1	2	248	0.00	29.870 
08:45	56.9	56.9	56.9	57	41.8	1	3	248	0.00	29.870 
08:50	57.5	57.5	57.5	54	41.0	2	4	248	0.00	29.870 
08:55	58.0	58.0	58.0	54	41.4	2	6	248	0.00	29.870 
09:00	58.3	58.3	58.3	54	41.7	2	6	248	0.00	29.868 
09:05	58.6	58.6	58.6	54	42.0	1	5	248	0.00	29.868 
09:10	59.0	59.0	59.0	52	41.4	2	5	248	0.00	29.868 
09:15	59.5	59.5	59.5	52	41.9	2	5	248	0.00	29.868 
09:20	60.1	60.1	60.1	50	41.4	2	3	248	0.00	29.868 
09:25	60.7	60.7	60.7	47	40.3	2	5	248	0.00	29.868 
09:30	61.3	61.3	61.3	48	41.4	1	5	248	0.00	29.866 
09:35	62.0	62.0	62.0	46	41.0	2	6	248	0.00	29.866 
09:40	62.6	62.6	62.6	44	40.4	2	4	248	0.00	29.866 
09:45	62.9	62.9	62.9	44	40.6	2	4	248	0.00	29.864 
09:50	63.4	63.4	63.4	43	40.5	2	6	248	0.00	29.864 
09:55	63.7	63.7	63.7	42	40.2	3	6	248	0.00	29.864 
10:00	64.2	64.2	64.2	42	40.6	2	5	248	0.00	29.863 
10:05	64.7	64.7	64.7	42	41.1	2	4	248	0.00	29.863 
10:10	65.0	65.0	65.0	37	38.1	3	7	248	0.00	29.863 
10:15	65.5	65.5	65.5	41	41.2	3	7	248	0.00	29.862 
10:20	65.6	65.6	65.6	38	39.3	3	9	248	0.00	29.862 
10:25	66.4	66.4	66.4	37	39.3	2	5	248	0.00	29.862 
10:30	66.9	66.9	66.9	38	40.5	2	5	248	0.00	29.858 
10:35	67.6	67.6	67.6	43	44.3	2	7	248	0.00	29.858 
10:40	67.8	67.8	67.8	35	39.1	3	6	248	0.00	29.858 
10:45	67.6	67.6	67.6	38	41.1	3	6	248	0.00	29.852 
10:50	67.9	67.9	67.9	39	42.0	2	6	248	0.00	29.852 
10:55	67.9	67.9	67.9	35	39.2	3	6	248	0.00	29.852 
11:00	68.1	68.1	68.1	34	38.7	3	11	248	0.00	29.850 
11:05	68.1	68.1	68.1	35	39.4	3	6	248	0.00	29.850 
11:10	68.4	68.4	68.4	35	39.7	3	7	248	0.00	29.850 
11:15	69.1	69.1	69.1	34	39.5	3	7	248	0.00	29.850 
11:20	69.3	69.3	69.3	33	39.0	3	7	248	0.00	29.850 
11:25	69.1	69.1	69.1	34	39.5	4	9	248	0.00	29.850 
11:30	69.3	69.3	69.3	33	39.0	4	9	270	0.00	29.850 
11:35	69.4	69.4	69.4	32	38.3	5	11	248	0.00	29.850 
11:40	69.4	69.4	69.4	33	39.0	4	11	248	0.00	29.850 
11:45	69.6	69.6	69.6	31	37.6	4	11	248	0.00	29.849 
11:50	69.6	69.6	69.6	32	38.4	4	10	248	0.00	29.849 
11:55	70.3	70.3	70.3	31	38.2	3	7	248	0.00	29.849 
12:00	70.4	70.4	70.4	27	34.8	5	12	270	0.00	29.846 
12:05	70.8	70.8	70.8	31	38.7	3	10	248	0.00	29.846 
12:10	70.6	70.6	70.6	28	35.9	5	12	248	0.00	29.846 
12:15	70.6	70.6	70.6	28	35.9	4	15	248	0.00	29.842 
12:20	71.1	71.1	71.1	31	38.9	3	6	248	0.00	29.842 
12:25	71.1	71.1	71.1	27	35.4	5	11	270	0.00	29.842 
12:30	71.1	71.1	71.1	29	37.2	5	9	248	0.00	29.837 
12:35	70.9	70.9	70.9	30	37.9	5	9	270	0.00	29.837 
12:40	71.1	71.1	71.1	27	35.4	4	9	248	0.00	29.837 
12:45	71.8	71.8	71.8	29	37.8	3	7	248	0.00	29.835 
12:50	71.6	71.6	71.6	28	36.8	5	12	270	0.00	29.835 
12:55	71.5	71.5	71.5	28	36.7	4	11	248	0.00	29.835 
13:00	71.1	71.1	71.1	31	38.9	4	7	270	0.00	29.833 
13:05	71.5	71.5	71.5	27	35.8	3	7	248	0.00	29.833 
13:10	71.8	71.8	71.8	28	36.9	4	10	248	0.00	29.833 
13:15	72.1	72.1	72.1	28	37.2	3	7	270	0.00	29.826 
13:20	72.5	72.5	72.5	31	40.1	3	6	248	0.00	29.826 
13:25	72.5	72.5	72.5	29	38.4	4	10	248	0.00	29.826 
13:30	72.3	72.3	72.3	28	37.4	4	8	248	0.00	29.823 
13:35	71.6	71.6	71.6	29	37.6	3	7	248	0.00	29.823 
13:40	72.0	72.0	72.0	32	40.5	4	9	270	0.00	29.823 
13:45	72.0	72.0	72.0	28	37.1	4	11	248	0.00	29.819 
13:50	72.5	72.5	72.5	30	39.3	3	11	248	0.00	29.819 
13:55	72.3	72.3	72.3	27	36.4	3	7	248	0.00	29.819 
14:00	71.6	71.6	71.6	29	37.6	3	7	248	0.00	29.817 
14:05	71.1	71.1	71.1	31	38.9	5	11	248	0.00	29.817 
14:10	70.6	70.6	70.6	28	35.9	6	11	248	0.00	29.817 
14:15	70.3	70.3	70.3	29	36.5	4	13	248	0.00	29.819 
14:20	71.3	71.3	71.3	32	39.9	2	5	248	0.00	29.819 
14:25	72.0	72.0	72.0	32	40.5	3	10	248	0.00	29.819 
14:30	72.7	72.7	72.7	30	39.5	3	7	248	0.00	29.813 
14:35	73.3	73.3	73.3	28	38.2	4	10	248	0.00	29.813 
14:40	73.2	73.2	73.2	28	38.1	5	10	248	0.00	29.813 
14:45	72.3	72.3	72.3	28	37.4	4	10	248	0.00	29.809 
14:50	72.7	72.7	72.7	30	39.5	3	9	248	0.00	29.809 
14:55	71.6	71.6	71.6	29	37.6	5	10	248	0.00	29.809 
15:00	71.5	71.5	71.5	31	39.3	4	10	248	0.00	29.808 
15:05	71.6	71.6	71.6	31	39.4	5	12	248	0.00	29.808 
15:10	72.1	72.1	72.1	29	38.1	4	7	270	0.00	29.808 
15:15	72.8	72.8	72.8	30	39.5	4	10	248	0.00	29.805 
15:20	73.7	73.7	73.7	28	38.6	6	19	270	0.00	29.805 
15:25	73.2	73.2	73.2	28	38.1	4	10	248	0.00	29.805 
15:30	72.0	72.0	72.0	29	38.0	4	15	270	0.00	29.801 
15:35	71.3	71.3	71.3	32	39.9	2	4	270	0.00	29.801 
15:40	70.9	70.9	70.9	29	37.0	3	10	248	0.00	29.801 
15:45	71.8	71.8	71.8	29	37.8	6	13	248	0.00	29.798 
15:50	72.0	72.0	72.0	31	39.7	5	12	270	0.00	29.798 
15:55	71.8	71.8	71.8	30	38.7	4	7	248	0.00	29.798 
16:00	72.5	72.5	72.5	30	39.3	4	10	248	0.00	29.794 
16:05	71.8	71.8	71.8	28	36.9	4	9	248	0.00	29.794 
16:10	71.3	71.3	71.3	31	39.1	3	6	248	0.00	29.794 
16:15	70.9	70.9	70.9	30	37.9	5	12	270	0.00	29.793 
16:20	70.8	70.8	70.8	30	37.8	5	12	270	0.00	29.793 
16:25	72.3	72.3	72.3	31	40.0	3	10	248	0.00	29.793 
16:30	72.5	72.5	72.5	27	36.6	5	14	270	0.00	29.781 
16:35	72.1	72.1	72.1	31	39.8	5	10	270	0.00	29.781 
16:40	72.7	72.7	72.7	32	41.1	3	9	270	0.00	29.781 
16:45	73.0	73.0	73.0	31	40.6	3	9	270	0.00	29.776 
16:50	72.8	72.8	72.8	29	38.7	4	10	270	0.00	29.776 
16:55	72.0	72.0	72.0	30	38.9	3	6	270	0.00	29.776 
17:00	71.6	71.6	71.6	33	41.0	4	10	248	0.00	29.769 
17:05	72.5	72.5	72.5	31	40.1	3	7	248	0.00	29.769 
17:10	72.8	72.8	72.8	30	39.5	3	9	248	0.00	29.769 
17:15	72.0	72.0	72.0	30	38.9	4	10	270	0.00	29.767 
17:20	71.5	71.5	71.5	29	37.6	3	11	248	0.00	29.767 
17:25	71.6	71.6	71.6	29	37.6	6	11	248	0.00	29.767 
17:30	72.0	72.0	72.0	29	38.0	4	11	270	0.00	29.764 
17:35	72.1	72.1	72.1	30	38.9	3	9	248	0.00	29.764 
17:40	72.0	72.0	72.0	29	38.0	3	9	270	0.00	29.764 
17:45	72.1	72.1	72.1	31	39.8	4	9	248	0.00	29.763 
17:50	72.8	72.8	72.8	28	37.8	5	11	270	0.00	29.763 
17:55	73.2	73.2	73.2	28	38.1	4	9	270	0.00	29.763 
18:00	73.2	73.2	73.2	28	38.1	4	11	270	0.00	29.755 
18:05	73.0	73.0	73.0	28	38.0	4	9	248	0.00	29.755 
18:10	72.8	72.8	72.8	29	38.7	5	14	270	0.00	29.755 
18:15	72.7	72.7	72.7	28	37.7	5	12	270	0.00	29.751 
18:20	72.7	72.7	72.7	28	37.7	4	7	270	0.00	29.751 
18:25	72.5	72.5	72.5	28	37.5	5	13	248	0.00	29.751 
18:30	72.5	72.5	72.5	28	37.5	4	7	248	0.00	29.750 
18:35	72.5	72.5	72.5	29	38.4	4	7	248	0.00	29.750 
18:40	72.5	72.5	72.5	27	36.6	5	13	270	0.00	29.750 
18:45	72.3	72.3	72.3	28	37.4	5	12	270	0.00	29.750 
18:50	72.0	72.0	72.0	28	37.1	4	11	270	0.00	29.750 
18:55	71.8	71.8	71.8	29	37.8	3	7	270	0.00	29.750 
19:00	71.6	71.6	71.6	29	37.6	4	12	270	0.00	29.751 
19:05	71.6	71.6	71.6	28	36.8	5	11	270	0.00	29.751 
19:10	71.5	71.5	71.5	30	38.4	4	11	270	0.00	29.751 
19:15	71.3	71.3	71.3	30	38.3	3	9	248	0.00	29.751 
19:20	71.1	71.1	71.1	31	38.9	3	5	248	0.00	29.751 
19:25	70.4	70.4	70.4	33	39.9	3	12	270	0.00	29.751 
19:30	70.1	70.1	70.1	33	39.7	3	9	248	0.00	29.752 
19:35	69.8	69.8	69.8	34	40.2	2	4	248	0.00	29.752 
19:40	69.6	69.6	69.6	34	40.0	3	5	270	0.00	29.752 
19:45	69.3	69.3	69.3	35	40.5	2	5	270	0.00	29.759 
19:50	68.8	68.8	68.8	36	40.7	1	3	248	0.00	29.759 
19:55	68.6	68.6	68.6	37	41.3	2	6	248	0.00	29.759 
20:00	68.3	68.3	68.3	38	41.7	1	2	270	0.00	29.763 
20:05	67.9	67.9	67.9	38	41.3	1	3	270	0.00	29.763 
20:10	67.6	67.6	67.6	39	41.8	0	1	270	0.00	29.763 
20:15	67.3	67.3	67.3	39	41.5	0	1	270	0.00	29.756 
20:20	66.6	66.6	66.6	40	41.5	0	2	270	0.00	29.756 
20:25	66.3	66.3	66.3	41	41.9	0	1	270	0.00	29.756 
20:30	66.0	66.0	66.0	42	42.2	0	1	270	0.00	29.760 
20:35	65.6	65.6	65.6	43	42.5	0	1	270	0.00	29.760 
20:40	65.2	65.2	65.2	43	42.1	0	1	270	0.00	29.760 
20:45	65.2	65.2	65.2	43	42.1	1	2	248	0.00	29.763 
20:50	65.3	65.3	65.3	43	42.2	1	2	248	0.00	29.763 
20:55	65.5	65.5	65.5	43	42.4	1	2	248	0.00	29.763 
21:00	65.3	65.3	65.3	43	42.2	0	2	315	0.00	29.773 
21:05	65.0	65.0	65.0	43	42.0	2	6	315	0.00	29.773 
21:10	64.3	64.3	64.3	45	42.5	1	3	270	0.00	29.773 
21:15	63.9	63.9	63.9	46	42.7	1	4	270	0.00	29.773 
21:20	63.7	63.7	63.7	47	43.1	1	2	315	0.00	29.773 
21:25	63.2	63.2	63.2	48	43.2	1	4	338	0.00	29.773 
21:30	62.9	62.9	62.9	48	42.9	1	3	315	0.00	29.783 
21:35	62.7	62.7	62.7	48	42.7	1	3	270	0.00	29.783 
21:40	62.6	62.6	62.6	48	42.6	1	4	270	0.00	29.783 
21:45	62.3	62.3	62.3	48	42.4	1	5	315	0.00	29.789 
21:50	62.1	62.1	62.1	49	42.7	1	3	270	0.00	29.789 
21:55	61.8	61.8	61.8	49	42.4	2	5	292	0.00	29.789 
22:00	61.3	61.3	61.3	50	42.5	2	7	292	0.00	29.793 
22:05	61.0	61.0	61.0	50	42.2	2	7	338	0.00	29.793 
22:10	60.7	60.7	60.7	51	42.5	2	5	315	0.00	29.793 
22:15	60.5	60.5	60.5	52	42.8	2	4	292	0.00	29.794 
22:20	60.2	60.2	60.2	53	43.0	1	5	315	0.00	29.794 
22:25	59.9	59.9	59.9	53	42.7	1	2	315	0.00	29.794 
22:30	59.8	59.8	59.8	54	43.1	1	4	0	0.00	29.797 
22:35	59.5	59.5	59.5	54	42.8	1	3	338	0.00	29.797 
22:40	59.3	59.3	59.3	55	43.1	1	3	315	0.00	29.797 
22:45	59.0	59.0	59.0	55	42.9	1	5	0	0.00	29.789 
22:50	58.9	58.9	58.9	56	43.2	0	2	0	0.00	29.789 
22:55	58.7	58.7	58.7	57	43.5	1	5	0	0.00	29.789 
23:00	58.4	58.4	58.4	57	43.2	0	2	315	0.00	29.787 
23:05	58.3	58.3	58.3	58	43.6	1	2	315	0.00	29.787 
23:10	58.3	58.3	58.3	58	43.6	0	2	270	0.00	29.787 
23:15	58.1	58.1	58.1	58	43.4	0	1	292	0.00	29.789 
23:20	57.8	57.8	57.8	59	43.6	0	1	292	0.00	29.789 
23:25	57.3	57.3	57.3	60	43.5	0	1	292	0.00	29.789 
23:30	57.0	57.0	57.0	61	43.7	0	1	292	0.00	29.788 
23:35	56.7	56.7	56.7	62	43.8	0	0	---	0.00	29.788 
23:40	56.5	56.5	56.5	62	43.6	0	1	292	0.00	29.788 
23:45	56.3	56.3	56.3	63	43.9	0	0	---	0.00	29.790 
23:50	56.2	56.2	56.2	63	43.8	0	1	292	0.00	29.790 
23:55	56.2	56.2	56.2	63	43.8	0	0	---	0.00	29.790 

CoCoRaHS
IN-AL-39
A2 Web Hosting
Creative Commons License
GoDaddy
Look for:

loaded 2017-10-19 20:22:02 • last modified 2010-11-18 10:43:29
Privacy PolicyDisclaimer
• wx.awcolley.com is powered by PmWiki v.2002016 •
• all content (unless otherwise noted) © 2017 A W Colley